sensor_id;sensor_type;location;lat;lon;timestamp;temperature;humidity
21830;DHT22;11077;50.264;6.798;2023-08-07T00:00:27;10.00;99.90
21830;DHT22;11077;50.264;6.798;2023-08-07T00:02:54;10.00;99.90
21830;DHT22;11077;50.264;6.798;2023-08-07T00:05:22;10.00;99.90
21830;DHT22;11077;50.264;6.798;2023-08-07T00:07:50;10.00;99.90
21830;DHT22;11077;50.264;6.798;2023-08-07T00:10:17;10.00;99.90
21830;DHT22;11077;50.264;6.798;2023-08-07T00:12:44;10.00;99.90
21830;DHT22;11077;50.264;6.798;2023-08-07T00:15:12;10.00;99.90
21830;DHT22;11077;50.264;6.798;2023-08-07T00:17:39;10.00;99.90
21830;DHT22;11077;50.264;6.798;2023-08-07T00:20:07;10.00;99.90
21830;DHT22;11077;50.264;6.798;2023-08-07T00:22:36;10.00;99.90
21830;DHT22;11077;50.264;6.798;2023-08-07T00:25:04;10.00;99.90
21830;DHT22;11077;50.264;6.798;2023-08-07T00:27:32;10.00;99.90
21830;DHT22;11077;50.264;6.798;2023-08-07T00:29:59;10.00;99.90
21830;DHT22;11077;50.264;6.798;2023-08-07T00:32:26;10.00;99.90
21830;DHT22;11077;50.264;6.798;2023-08-07T00:34:53;10.00;99.90
21830;DHT22;11077;50.264;6.798;2023-08-07T00:37:29;10.00;99.90
21830;DHT22;11077;50.264;6.798;2023-08-07T00:39:59;10.00;99.90
21830;DHT22;11077;50.264;6.798;2023-08-07T00:42:42;10.00;99.90
21830;DHT22;11077;50.264;6.798;2023-08-07T00:45:26;10.00;99.90
21830;DHT22;11077;50.264;6.798;2023-08-07T00:47:53;10.00;99.90
21830;DHT22;11077;50.264;6.798;2023-08-07T00:50:21;10.00;99.90
21830;DHT22;11077;50.264;6.798;2023-08-07T00:52:57;10.00;99.90
21830;DHT22;11077;50.264;6.798;2023-08-07T00:55:27;10.00;99.90
21830;DHT22;11077;50.264;6.798;2023-08-07T00:58:19;10.00;99.90
21830;DHT22;11077;50.264;6.798;2023-08-07T01:00:56;10.00;99.90
21830;DHT22;11077;50.264;6.798;2023-08-07T01:03:34;10.00;99.90
21830;DHT22;11077;50.264;6.798;2023-08-07T01:06:07;10.00;99.90
21830;DHT22;11077;50.264;6.798;2023-08-07T01:08:35;10.00;99.90
21830;DHT22;11077;50.264;6.798;2023-08-07T01:11:19;10.10;99.90
21830;DHT22;11077;50.264;6.798;2023-08-07T01:13:55;10.10;99.90
21830;DHT22;11077;50.264;6.798;2023-08-07T01:16:31;10.00;99.90
21830;DHT22;11077;50.264;6.798;2023-08-07T01:19:01;10.00;99.90
21830;DHT22;11077;50.264;6.798;2023-08-07T01:21:32;10.00;99.90
21830;DHT22;11077;50.264;6.798;2023-08-07T01:24:01;10.00;99.90
21830;DHT22;11077;50.264;6.798;2023-08-07T01:26:28;10.00;99.90
21830;DHT22;11077;50.264;6.798;2023-08-07T01:29:00;10.00;99.90
21830;DHT22;11077;50.264;6.798;2023-08-07T01:31:39;10.00;99.90
21830;DHT22;11077;50.264;6.798;2023-08-07T01:34:08;10.00;99.90
21830;DHT22;11077;50.264;6.798;2023-08-07T01:36:39;10.00;99.90
21830;DHT22;11077;50.264;6.798;2023-08-07T01:39:11;10.00;99.90
21830;DHT22;11077;50.264;6.798;2023-08-07T01:41:48;10.00;99.90
21830;DHT22;11077;50.264;6.798;2023-08-07T01:44:16;10.00;99.90
21830;DHT22;11077;50.264;6.798;2023-08-07T01:46:45;10.00;99.90
21830;DHT22;11077;50.264;6.798;2023-08-07T01:49:12;10.00;99.90
21830;DHT22;11077;50.264;6.798;2023-08-07T01:51:42;10.00;99.90
21830;DHT22;11077;50.264;6.798;2023-08-07T01:54:11;10.00;99.90
21830;DHT22;11077;50.264;6.798;2023-08-07T01:56:38;10.00;99.90
21830;DHT22;11077;50.264;6.798;2023-08-07T01:59:51;10.00;99.90
21830;DHT22;11077;50.264;6.798;2023-08-07T02:02:19;9.90;99.90
21830;DHT22;11077;50.264;6.798;2023-08-07T02:04:54;10.00;99.90
21830;DHT22;11077;50.264;6.798;2023-08-07T02:07:22;10.00;99.90
21830;DHT22;11077;50.264;6.798;2023-08-07T02:09:51;9.90;99.90
21830;DHT22;11077;50.264;6.798;2023-08-07T02:12:18;10.00;99.90
21830;DHT22;11077;50.264;6.798;2023-08-07T02:14:58;9.90;99.90
21830;DHT22;11077;50.264;6.798;2023-08-07T02:17:26;9.90;99.90
21830;DHT22;11077;50.264;6.798;2023-08-07T02:20:02;9.90;99.90
21830;DHT22;11077;50.264;6.798;2023-08-07T02:22:58;9.90;99.90
21830;DHT22;11077;50.264;6.798;2023-08-07T02:25:50;9.90;99.90
21830;DHT22;11077;50.264;6.798;2023-08-07T02:28:28;9.90;99.90
21830;DHT22;11077;50.264;6.798;2023-08-07T02:31:34;9.90;99.90
21830;DHT22;11077;50.264;6.798;2023-08-07T02:34:01;9.90;99.90
21830;DHT22;11077;50.264;6.798;2023-08-07T02:36:30;9.90;99.90
21830;DHT22;11077;50.264;6.798;2023-08-07T02:38:57;9.90;99.90
21830;DHT22;11077;50.264;6.798;2023-08-07T02:41:26;9.90;99.90
21830;DHT22;11077;50.264;6.798;2023-08-07T02:43:52;9.90;99.90
21830;DHT22;11077;50.264;6.798;2023-08-07T02:46:19;9.90;99.90
21830;DHT22;11077;50.264;6.798;2023-08-07T02:48:46;9.90;99.90
21830;DHT22;11077;50.264;6.798;2023-08-07T02:51:13;9.90;99.90
21830;DHT22;11077;50.264;6.798;2023-08-07T02:53:40;9.80;99.90
21830;DHT22;11077;50.264;6.798;2023-08-07T02:56:07;9.80;99.90
21830;DHT22;11077;50.264;6.798;2023-08-07T02:58:36;9.80;99.90
21830;DHT22;11077;50.264;6.798;2023-08-07T03:01:04;9.80;99.90
21830;DHT22;11077;50.264;6.798;2023-08-07T03:03:32;9.80;99.90
21830;DHT22;11077;50.264;6.798;2023-08-07T03:05:59;9.80;99.90
21830;DHT22;11077;50.264;6.798;2023-08-07T03:08:26;9.80;99.90
21830;DHT22;11077;50.264;6.798;2023-08-07T03:10:55;9.80;99.90
21830;DHT22;11077;50.264;6.798;2023-08-07T03:13:24;9.80;99.90
21830;DHT22;11077;50.264;6.798;2023-08-07T03:16:00;9.80;99.90
21830;DHT22;11077;50.264;6.798;2023-08-07T03:18:28;9.80;99.90
21830;DHT22;11077;50.264;6.798;2023-08-07T03:20:55;9.80;99.90
21830;DHT22;11077;50.264;6.798;2023-08-07T03:23:23;9.70;99.90
21830;DHT22;11077;50.264;6.798;2023-08-07T03:26:00;9.70;99.90
21830;DHT22;11077;50.264;6.798;2023-08-07T03:28:28;9.70;99.90
21830;DHT22;11077;50.264;6.798;2023-08-07T03:30:55;9.80;99.90
21830;DHT22;11077;50.264;6.798;2023-08-07T03:33:24;9.80;99.90
21830;DHT22;11077;50.264;6.798;2023-08-07T03:35:51;9.80;99.90
21830;DHT22;11077;50.264;6.798;2023-08-07T03:38:20;9.70;99.90
21830;DHT22;11077;50.264;6.798;2023-08-07T03:40:50;9.70;99.90
21830;DHT22;11077;50.264;6.798;2023-08-07T03:43:18;9.70;99.90
21830;DHT22;11077;50.264;6.798;2023-08-07T03:45:45;9.80;99.90
21830;DHT22;11077;50.264;6.798;2023-08-07T03:48:13;9.80;99.90
21830;DHT22;11077;50.264;6.798;2023-08-07T03:50:42;9.80;99.90
21830;DHT22;11077;50.264;6.798;2023-08-07T03:53:09;9.80;99.90
21830;DHT22;11077;50.264;6.798;2023-08-07T03:55:42;9.70;99.90
21830;DHT22;11077;50.264;6.798;2023-08-07T03:58:12;9.80;99.90
21830;DHT22;11077;50.264;6.798;2023-08-07T04:00:39;9.80;99.90
21830;DHT22;11077;50.264;6.798;2023-08-07T04:03:06;9.80;99.90
21830;DHT22;11077;50.264;6.798;2023-08-07T04:05:33;9.80;99.90
21830;DHT22;11077;50.264;6.798;2023-08-07T04:08:02;9.80;99.90
21830;DHT22;11077;50.264;6.798;2023-08-07T04:10:29;9.70;99.90
21830;DHT22;11077;50.264;6.798;2023-08-07T04:12:57;9.70;99.90
21830;DHT22;11077;50.264;6.798;2023-08-07T04:15:24;9.70;99.90
21830;DHT22;11077;50.264;6.798;2023-08-07T04:17:51;9.70;99.90
21830;DHT22;11077;50.264;6.798;2023-08-07T04:20:18;9.70;99.90
21830;DHT22;11077;50.264;6.798;2023-08-07T04:22:47;9.70;99.90
21830;DHT22;11077;50.264;6.798;2023-08-07T04:25:15;9.70;99.90
21830;DHT22;11077;50.264;6.798;2023-08-07T04:27:42;9.60;99.90
21830;DHT22;11077;50.264;6.798;2023-08-07T04:30:11;9.60;99.90
21830;DHT22;11077;50.264;6.798;2023-08-07T04:32:38;9.60;99.90
21830;DHT22;11077;50.264;6.798;2023-08-07T04:35:07;9.60;99.90
21830;DHT22;11077;50.264;6.798;2023-08-07T04:37:35;9.60;99.90
21830;DHT22;11077;50.264;6.798;2023-08-07T04:40:03;9.50;99.90
21830;DHT22;11077;50.264;6.798;2023-08-07T04:42:32;9.50;99.90
21830;DHT22;11077;50.264;6.798;2023-08-07T04:45:00;9.50;99.90
21830;DHT22;11077;50.264;6.798;2023-08-07T04:47:28;9.50;99.90
21830;DHT22;11077;50.264;6.798;2023-08-07T04:49:55;9.50;99.90
21830;DHT22;11077;50.264;6.798;2023-08-07T04:52:22;9.50;99.90
21830;DHT22;11077;50.264;6.798;2023-08-07T04:54:49;9.50;99.90
21830;DHT22;11077;50.264;6.798;2023-08-07T04:57:17;9.50;99.90
21830;DHT22;11077;50.264;6.798;2023-08-07T04:59:46;9.50;99.90
21830;DHT22;11077;50.264;6.798;2023-08-07T05:02:13;9.50;99.90
21830;DHT22;11077;50.264;6.798;2023-08-07T05:04:40;9.50;99.90
21830;DHT22;11077;50.264;6.798;2023-08-07T05:07:08;9.50;99.90
21830;DHT22;11077;50.264;6.798;2023-08-07T05:09:35;9.50;99.90
21830;DHT22;11077;50.264;6.798;2023-08-07T05:12:03;9.50;99.90
21830;DHT22;11077;50.264;6.798;2023-08-07T05:14:31;9.40;99.90
21830;DHT22;11077;50.264;6.798;2023-08-07T05:16:59;9.40;99.90
21830;DHT22;11077;50.264;6.798;2023-08-07T05:19:27;9.40;99.90
21830;DHT22;11077;50.264;6.798;2023-08-07T05:21:55;9.40;99.90
21830;DHT22;11077;50.264;6.798;2023-08-07T05:24:22;9.40;99.90
21830;DHT22;11077;50.264;6.798;2023-08-07T05:26:50;9.40;99.90
21830;DHT22;11077;50.264;6.798;2023-08-07T05:29:17;9.40;99.90
21830;DHT22;11077;50.264;6.798;2023-08-07T05:31:45;9.50;99.90
21830;DHT22;11077;50.264;6.798;2023-08-07T05:34:14;9.50;99.90
21830;DHT22;11077;50.264;6.798;2023-08-07T05:36:42;9.40;99.90
21830;DHT22;11077;50.264;6.798;2023-08-07T05:39:09;9.50;99.90
21830;DHT22;11077;50.264;6.798;2023-08-07T05:41:36;9.50;99.90
21830;DHT22;11077;50.264;6.798;2023-08-07T05:44:04;9.60;99.90
21830;DHT22;11077;50.264;6.798;2023-08-07T05:46:32;9.50;99.90
21830;DHT22;11077;50.264;6.798;2023-08-07T05:48:59;9.60;99.90
21830;DHT22;11077;50.264;6.798;2023-08-07T05:51:28;9.60;99.90
21830;DHT22;11077;50.264;6.798;2023-08-07T05:53:55;9.60;99.90
21830;DHT22;11077;50.264;6.798;2023-08-07T05:56:23;9.60;99.90
21830;DHT22;11077;50.264;6.798;2023-08-07T05:58:51;9.60;99.90
21830;DHT22;11077;50.264;6.798;2023-08-07T06:01:18;9.60;99.90
21830;DHT22;11077;50.264;6.798;2023-08-07T06:03:45;9.70;99.90
21830;DHT22;11077;50.264;6.798;2023-08-07T06:06:13;9.70;99.90
21830;DHT22;11077;50.264;6.798;2023-08-07T06:08:42;9.70;99.90
21830;DHT22;11077;50.264;6.798;2023-08-07T06:11:11;9.80;99.90
21830;DHT22;11077;50.264;6.798;2023-08-07T06:13:41;9.70;99.90
21830;DHT22;11077;50.264;6.798;2023-08-07T06:16:11;9.80;99.90
21830;DHT22;11077;50.264;6.798;2023-08-07T06:18:38;9.80;99.90
21830;DHT22;11077;50.264;6.798;2023-08-07T06:21:06;9.80;99.90
21830;DHT22;11077;50.264;6.798;2023-08-07T06:23:37;9.90;99.90
21830;DHT22;11077;50.264;6.798;2023-08-07T06:26:09;9.90;99.90
21830;DHT22;11077;50.264;6.798;2023-08-07T06:28:41;9.90;99.90
21830;DHT22;11077;50.264;6.798;2023-08-07T06:31:10;9.90;99.90
21830;DHT22;11077;50.264;6.798;2023-08-07T06:33:40;9.90;99.90
21830;DHT22;11077;50.264;6.798;2023-08-07T06:36:10;9.90;99.90
21830;DHT22;11077;50.264;6.798;2023-08-07T06:38:39;9.90;99.90
21830;DHT22;11077;50.264;6.798;2023-08-07T06:41:08;9.90;99.90
21830;DHT22;11077;50.264;6.798;2023-08-07T06:43:36;9.90;99.90
21830;DHT22;11077;50.264;6.798;2023-08-07T06:46:06;9.90;99.90
21830;DHT22;11077;50.264;6.798;2023-08-07T06:48:34;9.90;99.90
21830;DHT22;11077;50.264;6.798;2023-08-07T06:51:01;9.90;99.90
21830;DHT22;11077;50.264;6.798;2023-08-07T06:53:29;10.00;99.90
21830;DHT22;11077;50.264;6.798;2023-08-07T06:55:56;9.90;99.90
21830;DHT22;11077;50.264;6.798;2023-08-07T06:58:24;10.00;99.90
21830;DHT22;11077;50.264;6.798;2023-08-07T07:00:52;10.00;99.90
21830;DHT22;11077;50.264;6.798;2023-08-07T07:03:19;10.00;99.90
21830;DHT22;11077;50.264;6.798;2023-08-07T07:05:48;10.00;99.90
21830;DHT22;11077;50.264;6.798;2023-08-07T07:08:16;10.00;99.90
21830;DHT22;11077;50.264;6.798;2023-08-07T07:10:43;10.10;99.90
21830;DHT22;11077;50.264;6.798;2023-08-07T07:13:11;10.10;99.90
21830;DHT22;11077;50.264;6.798;2023-08-07T07:15:42;10.10;99.90
21830;DHT22;11077;50.264;6.798;2023-08-07T07:18:09;10.10;99.90
21830;DHT22;11077;50.264;6.798;2023-08-07T07:20:37;10.20;99.90
21830;DHT22;11077;50.264;6.798;2023-08-07T07:23:05;10.10;99.90
21830;DHT22;11077;50.264;6.798;2023-08-07T07:25:32;10.20;99.90
21830;DHT22;11077;50.264;6.798;2023-08-07T07:28:00;10.20;99.90
21830;DHT22;11077;50.264;6.798;2023-08-07T07:30:27;10.30;99.90
21830;DHT22;11077;50.264;6.798;2023-08-07T07:33:07;10.30;99.90
21830;DHT22;11077;50.264;6.798;2023-08-07T07:35:38;10.30;99.90
21830;DHT22;11077;50.264;6.798;2023-08-07T07:38:06;10.40;99.90
21830;DHT22;11077;50.264;6.798;2023-08-07T07:40:34;10.40;99.90
21830;DHT22;11077;50.264;6.798;2023-08-07T07:43:02;10.50;99.90
21830;DHT22;11077;50.264;6.798;2023-08-07T07:45:29;10.50;99.90
21830;DHT22;11077;50.264;6.798;2023-08-07T07:48:01;10.50;99.90
21830;DHT22;11077;50.264;6.798;2023-08-07T07:50:28;10.50;99.90
21830;DHT22;11077;50.264;6.798;2023-08-07T07:52:56;10.50;99.90
21830;DHT22;11077;50.264;6.798;2023-08-07T07:55:25;10.50;99.90
21830;DHT22;11077;50.264;6.798;2023-08-07T07:57:54;10.50;99.90
21830;DHT22;11077;50.264;6.798;2023-08-07T08:00:22;10.60;99.90
21830;DHT22;11077;50.264;6.798;2023-08-07T08:02:54;10.60;99.90
21830;DHT22;11077;50.264;6.798;2023-08-07T08:05:23;10.60;99.90
21830;DHT22;11077;50.264;6.798;2023-08-07T08:07:50;10.60;99.90
21830;DHT22;11077;50.264;6.798;2023-08-07T08:10:18;10.70;99.90
21830;DHT22;11077;50.264;6.798;2023-08-07T08:12:45;10.80;99.90
21830;DHT22;11077;50.264;6.798;2023-08-07T08:15:13;10.70;99.90
21830;DHT22;11077;50.264;6.798;2023-08-07T08:17:40;10.70;99.90
21830;DHT22;11077;50.264;6.798;2023-08-07T08:20:09;10.80;99.90
21830;DHT22;11077;50.264;6.798;2023-08-07T08:22:37;10.80;99.90
21830;DHT22;11077;50.264;6.798;2023-08-07T08:25:05;10.80;99.90
21830;DHT22;11077;50.264;6.798;2023-08-07T08:27:32;10.90;99.90
21830;DHT22;11077;50.264;6.798;2023-08-07T08:30:00;11.00;99.90
21830;DHT22;11077;50.264;6.798;2023-08-07T08:32:27;11.00;99.90
21830;DHT22;11077;50.264;6.798;2023-08-07T08:34:55;11.10;99.90
21830;DHT22;11077;50.264;6.798;2023-08-07T08:37:22;11.10;99.90
21830;DHT22;11077;50.264;6.798;2023-08-07T08:39:51;11.20;99.90
21830;DHT22;11077;50.264;6.798;2023-08-07T08:42:19;11.30;99.90
21830;DHT22;11077;50.264;6.798;2023-08-07T08:44:51;11.30;99.90
21830;DHT22;11077;50.264;6.798;2023-08-07T08:47:20;11.40;99.90
21830;DHT22;11077;50.264;6.798;2023-08-07T08:49:51;11.50;99.90
21830;DHT22;11077;50.264;6.798;2023-08-07T08:52:22;11.70;99.90
21830;DHT22;11077;50.264;6.798;2023-08-07T08:54:51;11.90;99.90
21830;DHT22;11077;50.264;6.798;2023-08-07T08:57:19;11.90;99.90
21830;DHT22;11077;50.264;6.798;2023-08-07T08:59:47;11.90;99.90
21830;DHT22;11077;50.264;6.798;2023-08-07T09:02:14;11.80;99.90
21830;DHT22;11077;50.264;6.798;2023-08-07T09:04:42;11.90;99.90
21830;DHT22;11077;50.264;6.798;2023-08-07T09:07:09;11.80;99.90
21830;DHT22;11077;50.264;6.798;2023-08-07T09:09:38;11.80;99.90
21830;DHT22;11077;50.264;6.798;2023-08-07T09:12:09;11.90;99.90
21830;DHT22;11077;50.264;6.798;2023-08-07T09:14:41;11.80;99.90
21830;DHT22;11077;50.264;6.798;2023-08-07T09:17:12;11.80;99.90
21830;DHT22;11077;50.264;6.798;2023-08-07T09:19:40;11.90;99.90
21830;DHT22;11077;50.264;6.798;2023-08-07T09:22:08;11.90;99.90
21830;DHT22;11077;50.264;6.798;2023-08-07T09:24:35;11.90;99.90
21830;DHT22;11077;50.264;6.798;2023-08-07T09:27:03;12.00;99.90
21830;DHT22;11077;50.264;6.798;2023-08-07T09:29:35;12.10;99.90
21830;DHT22;11077;50.264;6.798;2023-08-07T09:32:07;12.10;99.90
21830;DHT22;11077;50.264;6.798;2023-08-07T09:34:35;12.20;99.90
21830;DHT22;11077;50.264;6.798;2023-08-07T09:37:02;12.20;99.90
21830;DHT22;11077;50.264;6.798;2023-08-07T09:39:30;12.30;99.90
21830;DHT22;11077;50.264;6.798;2023-08-07T09:41:57;12.40;99.90
21830;DHT22;11077;50.264;6.798;2023-08-07T09:44:25;12.40;99.90
21830;DHT22;11077;50.264;6.798;2023-08-07T09:46:54;12.30;99.90
21830;DHT22;11077;50.264;6.798;2023-08-07T09:49:21;12.40;99.90
21830;DHT22;11077;50.264;6.798;2023-08-07T09:51:49;12.30;99.90
21830;DHT22;11077;50.264;6.798;2023-08-07T09:54:17;12.30;99.90
21830;DHT22;11077;50.264;6.798;2023-08-07T09:56:47;12.40;99.90
21830;DHT22;11077;50.264;6.798;2023-08-07T09:59:14;12.50;99.90
21830;DHT22;11077;50.264;6.798;2023-08-07T10:01:44;12.60;99.90
21830;DHT22;11077;50.264;6.798;2023-08-07T10:04:13;12.70;99.90
21830;DHT22;11077;50.264;6.798;2023-08-07T10:06:42;12.80;99.90
21830;DHT22;11077;50.264;6.798;2023-08-07T10:09:09;12.90;99.90
21830;DHT22;11077;50.264;6.798;2023-08-07T10:11:38;12.90;99.90
21830;DHT22;11077;50.264;6.798;2023-08-07T10:14:06;12.90;99.90
21830;DHT22;11077;50.264;6.798;2023-08-07T10:16:33;12.90;99.90
21830;DHT22;11077;50.264;6.798;2023-08-07T10:19:05;13.00;99.90
21830;DHT22;11077;50.264;6.798;2023-08-07T10:21:36;13.10;99.90
21830;DHT22;11077;50.264;6.798;2023-08-07T10:24:05;13.20;99.90
21830;DHT22;11077;50.264;6.798;2023-08-07T10:26:33;13.30;99.90
21830;DHT22;11077;50.264;6.798;2023-08-07T10:29:02;13.60;99.90
21830;DHT22;11077;50.264;6.798;2023-08-07T10:31:31;13.60;99.90
21830;DHT22;11077;50.264;6.798;2023-08-07T10:34:01;13.50;99.90
21830;DHT22;11077;50.264;6.798;2023-08-07T10:36:34;13.50;99.90
21830;DHT22;11077;50.264;6.798;2023-08-07T10:39:07;13.40;99.90
21830;DHT22;11077;50.264;6.798;2023-08-07T10:41:42;13.30;99.90
21830;DHT22;11077;50.264;6.798;2023-08-07T10:44:19;13.20;99.90
21830;DHT22;11077;50.264;6.798;2023-08-07T10:46:48;13.20;99.90
21830;DHT22;11077;50.264;6.798;2023-08-07T10:49:30;13.10;99.90
21830;DHT22;11077;50.264;6.798;2023-08-07T10:52:02;13.10;99.90
21830;DHT22;11077;50.264;6.798;2023-08-07T10:54:30;13.20;99.90
21830;DHT22;11077;50.264;6.798;2023-08-07T10:57:01;13.10;99.90
21830;DHT22;11077;50.264;6.798;2023-08-07T10:59:29;13.10;99.90
21830;DHT22;11077;50.264;6.798;2023-08-07T11:01:59;13.10;99.90
21830;DHT22;11077;50.264;6.798;2023-08-07T11:04:29;13.10;99.90
21830;DHT22;11077;50.264;6.798;2023-08-07T11:07:00;13.20;99.90
21830;DHT22;11077;50.264;6.798;2023-08-07T11:09:27;13.20;99.90
21830;DHT22;11077;50.264;6.798;2023-08-07T11:11:55;13.20;99.90
21830;DHT22;11077;50.264;6.798;2023-08-07T11:14:23;13.30;99.90
21830;DHT22;11077;50.264;6.798;2023-08-07T11:16:50;13.30;99.90
21830;DHT22;11077;50.264;6.798;2023-08-07T11:19:19;13.30;99.90
21830;DHT22;11077;50.264;6.798;2023-08-07T11:21:48;13.30;99.90
21830;DHT22;11077;50.264;6.798;2023-08-07T11:24:18;13.30;99.90
21830;DHT22;11077;50.264;6.798;2023-08-07T11:26:47;13.10;99.90
21830;DHT22;11077;50.264;6.798;2023-08-07T11:29:16;13.30;99.90
21830;DHT22;11077;50.264;6.798;2023-08-07T11:31:45;13.30;99.90
21830;DHT22;11077;50.264;6.798;2023-08-07T11:34:12;13.40;99.90
21830;DHT22;11077;50.264;6.798;2023-08-07T11:36:41;13.40;99.90
21830;DHT22;11077;50.264;6.798;2023-08-07T11:39:09;13.60;99.90
21830;DHT22;11077;50.264;6.798;2023-08-07T11:41:38;13.70;99.90
21830;DHT22;11077;50.264;6.798;2023-08-07T11:44:09;13.90;99.90
21830;DHT22;11077;50.264;6.798;2023-08-07T11:46:36;14.10;99.90
21830;DHT22;11077;50.264;6.798;2023-08-07T11:49:04;14.30;99.90
21830;DHT22;11077;50.264;6.798;2023-08-07T11:51:32;14.30;99.90
21830;DHT22;11077;50.264;6.798;2023-08-07T11:54:00;14.50;99.90
21830;DHT22;11077;50.264;6.798;2023-08-07T11:56:38;14.70;99.90
21830;DHT22;11077;50.264;6.798;2023-08-07T11:59:16;14.90;99.90
21830;DHT22;11077;50.264;6.798;2023-08-07T12:01:47;15.00;99.90
21830;DHT22;11077;50.264;6.798;2023-08-07T12:04:14;15.20;99.90
21830;DHT22;11077;50.264;6.798;2023-08-07T12:06:53;15.30;99.90
21830;DHT22;11077;50.264;6.798;2023-08-07T12:09:25;15.30;99.90
21830;DHT22;11077;50.264;6.798;2023-08-07T12:11:56;15.40;99.90
21830;DHT22;11077;50.264;6.798;2023-08-07T12:14:28;15.50;99.90
21830;DHT22;11077;50.264;6.798;2023-08-07T12:16:55;15.30;99.90
21830;DHT22;11077;50.264;6.798;2023-08-07T12:19:23;15.30;99.90
21830;DHT22;11077;50.264;6.798;2023-08-07T12:21:50;15.50;99.90
21830;DHT22;11077;50.264;6.798;2023-08-07T12:24:28;15.70;99.90
21830;DHT22;11077;50.264;6.798;2023-08-07T12:26:58;15.80;99.90
21830;DHT22;11077;50.264;6.798;2023-08-07T12:29:27;16.00;99.90
21830;DHT22;11077;50.264;6.798;2023-08-07T12:31:55;16.20;99.90
21830;DHT22;11077;50.264;6.798;2023-08-07T12:34:25;16.30;99.90
21830;DHT22;11077;50.264;6.798;2023-08-07T12:37:16;16.30;99.90
21830;DHT22;11077;50.264;6.798;2023-08-07T12:39:48;16.40;99.90
21830;DHT22;11077;50.264;6.798;2023-08-07T12:42:16;16.20;99.90
21830;DHT22;11077;50.264;6.798;2023-08-07T12:44:48;16.00;99.90
21830;DHT22;11077;50.264;6.798;2023-08-07T12:47:17;15.80;99.90
21830;DHT22;11077;50.264;6.798;2023-08-07T12:50:04;15.60;99.90
21830;DHT22;11077;50.264;6.798;2023-08-07T12:52:34;15.60;99.90
21830;DHT22;11077;50.264;6.798;2023-08-07T12:55:06;15.70;99.90
21830;DHT22;11077;50.264;6.798;2023-08-07T12:57:34;15.70;99.90
21830;DHT22;11077;50.264;6.798;2023-08-07T13:00:03;15.90;99.90
21830;DHT22;11077;50.264;6.798;2023-08-07T13:02:31;16.00;99.90
21830;DHT22;11077;50.264;6.798;2023-08-07T13:04:58;16.20;99.90
21830;DHT22;11077;50.264;6.798;2023-08-07T13:07:26;16.30;99.90
21830;DHT22;11077;50.264;6.798;2023-08-07T13:09:54;16.40;99.90
21830;DHT22;11077;50.264;6.798;2023-08-07T13:12:23;16.30;99.90
21830;DHT22;11077;50.264;6.798;2023-08-07T13:14:50;16.40;99.90
21830;DHT22;11077;50.264;6.798;2023-08-07T13:17:19;16.40;99.90
21830;DHT22;11077;50.264;6.798;2023-08-07T13:19:46;16.40;99.90
21830;DHT22;11077;50.264;6.798;2023-08-07T13:22:13;16.50;99.90
21830;DHT22;11077;50.264;6.798;2023-08-07T13:24:41;16.50;99.90
21830;DHT22;11077;50.264;6.798;2023-08-07T13:27:08;16.60;99.90
21830;DHT22;11077;50.264;6.798;2023-08-07T13:29:36;16.50;99.90
21830;DHT22;11077;50.264;6.798;2023-08-07T13:32:03;16.50;99.90
21830;DHT22;11077;50.264;6.798;2023-08-07T13:34:36;16.30;99.90
21830;DHT22;11077;50.264;6.798;2023-08-07T13:37:04;16.30;99.90
21830;DHT22;11077;50.264;6.798;2023-08-07T13:39:32;16.30;99.90
21830;DHT22;11077;50.264;6.798;2023-08-07T13:41:59;16.10;99.90
21830;DHT22;11077;50.264;6.798;2023-08-07T13:44:26;15.90;99.90
21830;DHT22;11077;50.264;6.798;2023-08-07T13:46:54;15.70;99.90
21830;DHT22;11077;50.264;6.798;2023-08-07T13:49:21;15.80;99.90
21830;DHT22;11077;50.264;6.798;2023-08-07T13:51:51;16.00;99.90
21830;DHT22;11077;50.264;6.798;2023-08-07T13:54:18;16.00;99.90
21830;DHT22;11077;50.264;6.798;2023-08-07T13:56:45;16.10;99.90
21830;DHT22;11077;50.264;6.798;2023-08-07T13:59:12;16.20;99.90
21830;DHT22;11077;50.264;6.798;2023-08-07T14:01:40;16.30;99.90
21830;DHT22;11077;50.264;6.798;2023-08-07T14:04:07;16.40;99.90
21830;DHT22;11077;50.264;6.798;2023-08-07T14:06:34;16.30;99.90
21830;DHT22;11077;50.264;6.798;2023-08-07T14:09:03;16.40;99.90
21830;DHT22;11077;50.264;6.798;2023-08-07T14:11:30;16.30;99.90
21830;DHT22;11077;50.264;6.798;2023-08-07T14:13:58;16.30;99.90
21830;DHT22;11077;50.264;6.798;2023-08-07T14:16:25;16.20;99.90
21830;DHT22;11077;50.264;6.798;2023-08-07T14:18:53;16.30;99.90
21830;DHT22;11077;50.264;6.798;2023-08-07T14:21:20;16.30;99.90
21830;DHT22;11077;50.264;6.798;2023-08-07T14:23:47;16.20;99.90
21830;DHT22;11077;50.264;6.798;2023-08-07T14:26:17;16.30;99.90
21830;DHT22;11077;50.264;6.798;2023-08-07T14:28:46;16.50;99.90
21830;DHT22;11077;50.264;6.798;2023-08-07T14:31:14;16.60;99.90
21830;DHT22;11077;50.264;6.798;2023-08-07T14:33:41;16.70;99.90
21830;DHT22;11077;50.264;6.798;2023-08-07T14:36:08;16.90;99.90
21830;DHT22;11077;50.264;6.798;2023-08-07T14:38:36;16.90;99.90
21830;DHT22;11077;50.264;6.798;2023-08-07T14:41:03;16.90;99.90
21830;DHT22;11077;50.264;6.798;2023-08-07T14:43:32;16.80;99.90
21830;DHT22;11077;50.264;6.798;2023-08-07T14:45:59;16.80;99.90
21830;DHT22;11077;50.264;6.798;2023-08-07T14:48:27;16.90;99.90
21830;DHT22;11077;50.264;6.798;2023-08-07T14:50:54;17.10;99.90
21830;DHT22;11077;50.264;6.798;2023-08-07T14:53:23;17.10;99.90
21830;DHT22;11077;50.264;6.798;2023-08-07T14:55:53;17.20;99.90
21830;DHT22;11077;50.264;6.798;2023-08-07T14:58:20;17.20;99.90
21830;DHT22;11077;50.264;6.798;2023-08-07T15:00:48;17.20;99.90
21830;DHT22;11077;50.264;6.798;2023-08-07T15:03:16;17.20;99.90
21830;DHT22;11077;50.264;6.798;2023-08-07T15:05:44;17.10;99.90
21830;DHT22;11077;50.264;6.798;2023-08-07T15:08:11;17.10;99.90
21830;DHT22;11077;50.264;6.798;2023-08-07T15:10:40;17.00;99.90
21830;DHT22;11077;50.264;6.798;2023-08-07T15:13:07;16.90;99.90
21830;DHT22;11077;50.264;6.798;2023-08-07T15:15:34;16.80;99.90
21830;DHT22;11077;50.264;6.798;2023-08-07T15:18:03;16.60;99.90
21830;DHT22;11077;50.264;6.798;2023-08-07T15:20:33;16.50;99.90
21830;DHT22;11077;50.264;6.798;2023-08-07T15:23:01;16.50;99.90
21830;DHT22;11077;50.264;6.798;2023-08-07T15:25:29;16.60;99.90
21830;DHT22;11077;50.264;6.798;2023-08-07T15:27:57;16.70;99.90
21830;DHT22;11077;50.264;6.798;2023-08-07T15:30:27;16.90;99.90
21830;DHT22;11077;50.264;6.798;2023-08-07T15:32:55;16.90;99.90
21830;DHT22;11077;50.264;6.798;2023-08-07T15:35:24;16.80;99.90
21830;DHT22;11077;50.264;6.798;2023-08-07T15:37:51;16.70;99.90
21830;DHT22;11077;50.264;6.798;2023-08-07T15:40:19;16.70;99.90
21830;DHT22;11077;50.264;6.798;2023-08-07T15:42:46;16.70;99.90
21830;DHT22;11077;50.264;6.798;2023-08-07T15:45:13;16.60;99.90
21830;DHT22;11077;50.264;6.798;2023-08-07T15:47:41;16.40;99.90